createdAt,value
2022-10-18T12:49:01.731Z,2.92
2022-10-18T12:52:06.400Z,2.55
2022-10-18T12:55:16.816Z,2.78
2022-10-18T12:58:29.900Z,2.60
2022-10-18T13:01:51.646Z,2.35
2022-10-18T13:04:53.668Z,2.60
2022-10-18T13:08:22.456Z,2.30
2022-10-18T13:11:31.345Z,2.50
2022-10-18T13:14:44.224Z,2.28
2022-10-18T13:18:04.557Z,2.00
2022-10-18T13:21:13.642Z,2.67
2022-10-18T13:24:17.801Z,2.90
2022-10-18T13:27:35.560Z,2.40
2022-10-18T13:30:56.154Z,2.40
2022-10-18T13:34:28.105Z,2.30
2022-10-18T13:37:30.711Z,2.38
2022-10-18T13:40:32.358Z,2.20
2022-10-18T13:43:52.692Z,1.80
2022-10-18T13:46:54.311Z,2.47
2022-10-18T13:53:49.440Z,1.80
2022-10-18T13:57:09.174Z,2.00
2022-10-18T14:00:13.760Z,2.22
2022-10-18T14:03:55.098Z,2.00
2022-10-18T14:06:51.982Z,1.88
2022-10-18T14:09:57.595Z,2.00
2022-10-18T14:13:02.729Z,2.20
2022-10-18T14:16:20.045Z,2.42
2022-10-18T14:19:36.521Z,2.00
2022-10-18T14:23:01.322Z,1.90
2022-10-18T14:26:12.635Z,2.00
2022-10-18T14:29:20.150Z,1.83
2022-10-18T14:32:31.911Z,1.77
2022-10-18T14:35:35.663Z,1.90
2022-10-18T19:15:44.757Z,1.60
2022-10-18T19:19:07.376Z,1.40
2022-10-18T19:22:10.170Z,1.33
2022-10-18T19:25:11.671Z,1.40
2022-10-18T19:28:13.139Z,1.90
2022-10-18T19:31:15.002Z,1.20
2022-10-18T19:34:18.379Z,1.40
2022-10-18T19:37:19.905Z,1.10
2022-10-18T19:40:21.402Z,1.58
2022-10-18T19:43:22.921Z,1.70
2022-10-18T19:46:24.654Z,1.50
2022-10-18T19:49:27.252Z,1.55
2022-10-18T19:52:29.102Z,1.50
2022-10-18T19:55:30.860Z,1.35
2022-10-18T19:58:32.649Z,1.50
2022-10-18T20:01:34.326Z,1.58
2022-10-18T20:04:38.186Z,1.60
2022-10-18T20:07:41.328Z,1.70
2022-10-18T20:10:42.857Z,1.90
2022-10-18T20:13:44.920Z,1.70
2022-10-18T20:16:46.448Z,1.60
2022-10-18T20:19:48.349Z,1.80
2022-10-18T20:22:49.867Z,1.58
2022-10-18T20:26:21.063Z,1.45
2022-10-18T20:29:25.189Z,1.58
2022-10-18T20:32:26.795Z,1.38
2022-10-18T20:35:28.279Z,1.50
2022-10-18T20:38:31.884Z,1.67
2022-10-18T20:41:38.589Z,1.60
2022-10-18T20:44:43.185Z,1.60
2022-10-18T20:47:44.649Z,1.30
2022-10-18T20:50:46.091Z,1.80
2022-10-18T20:53:47.771Z,1.65
2022-10-18T20:56:49.319Z,1.63
2022-10-18T20:59:50.812Z,1.38
2022-10-18T21:02:52.338Z,1.60
2022-10-18T21:05:53.809Z,1.35
2022-10-18T21:08:58.497Z,1.35
2022-10-18T21:12:00.101Z,1.20
2022-10-18T21:15:02.267Z,1.70
2022-10-18T21:18:04.045Z,1.40
2022-10-18T21:21:17.371Z,1.40
2022-10-18T21:24:20.100Z,1.40
2022-10-18T21:27:21.596Z,1.40
2022-10-18T21:30:24.838Z,1.35
2022-10-18T21:33:26.575Z,1.60
2022-10-18T21:36:31.647Z,1.48
2022-10-18T21:39:33.307Z,1.40
